createdAt,value
2016-09-24T00:00:14.889Z,1019.67
2016-09-24T00:01:14.872Z,1019.63
2016-09-24T00:02:14.858Z,1019.69
2016-09-24T00:03:14.839Z,1019.73
2016-09-24T00:04:14.822Z,1019.67
2016-09-24T00:05:14.808Z,1019.71
2016-09-24T00:06:14.791Z,1019.72
2016-09-24T00:07:14.774Z,1019.71
2016-09-24T00:08:14.758Z,1019.71
2016-09-24T00:09:14.740Z,1019.69
2016-09-24T00:10:14.723Z,1019.72
2016-09-24T00:11:14.709Z,1019.75
2016-09-24T00:12:14.689Z,1019.69
2016-09-24T00:13:14.672Z,1019.69
2016-09-24T00:14:14.660Z,1019.69
2016-09-24T00:15:14.639Z,1019.72
2016-09-24T00:16:14.622Z,1019.71
2016-09-24T00:17:14.609Z,1019.72
2016-09-24T00:18:14.595Z,1019.76
2016-09-24T00:19:14.575Z,1019.76
2016-09-24T00:20:14.559Z,1019.75
2016-09-24T00:21:14.540Z,1019.71
2016-09-24T00:22:14.526Z,1019.73
2016-09-24T00:23:14.505Z,1019.73
2016-09-24T00:24:14.493Z,1019.73
2016-09-24T00:25:14.475Z,1019.71
2016-09-24T00:26:14.461Z,1019.73
2016-09-24T00:27:14.439Z,1019.74
2016-09-24T00:28:14.425Z,1019.73
2016-09-24T00:29:14.407Z,1019.68
2016-09-24T00:30:14.393Z,1019.69
2016-09-24T00:31:14.375Z,1019.68
2016-09-24T00:32:14.357Z,1019.68
2016-09-24T00:33:14.340Z,1019.68
2016-09-24T00:34:14.324Z,1019.7
2016-09-24T00:35:14.311Z,1019.64
2016-09-24T00:36:14.290Z,1019.73
2016-09-24T00:37:14.275Z,1019.65
2016-09-24T00:38:14.261Z,1019.68
2016-09-24T00:39:14.242Z,1019.66
2016-09-24T00:40:14.226Z,1019.7
2016-09-24T00:41:14.207Z,1019.7
2016-09-24T00:42:14.192Z,1019.66
2016-09-24T00:43:14.172Z,1019.65
2016-09-24T00:44:14.156Z,1019.68
2016-09-24T00:45:14.141Z,1019.63
2016-09-24T00:46:14.124Z,1019.62
2016-09-24T00:47:14.105Z,1019.65
2016-09-24T00:48:14.094Z,1019.63
2016-09-24T00:49:14.077Z,1019.66
2016-09-24T00:50:14.056Z,1019.66
2016-09-24T00:51:14.043Z,1019.64
2016-09-24T00:52:14.024Z,1019.63
2016-09-24T00:53:14.009Z,1019.71
2016-09-24T00:54:13.992Z,1019.72
2016-09-24T00:55:13.975Z,1019.68
2016-09-24T00:56:13.957Z,1019.71
2016-09-24T00:57:13.943Z,1019.69
2016-09-24T00:58:13.924Z,1019.68
2016-09-24T00:59:13.908Z,1019.74
2016-09-24T01:00:13.891Z,1019.71
2016-09-24T01:01:13.872Z,1019.72
2016-09-24T01:02:13.858Z,1019.74
2016-09-24T01:03:13.841Z,1019.73
2016-09-24T01:04:13.827Z,1019.73
2016-09-24T01:05:13.810Z,1019.72
2016-09-24T01:06:13.793Z,1019.72
2016-09-24T01:07:13.774Z,1019.73
2016-09-24T01:08:13.758Z,1019.68
2016-09-24T01:09:13.739Z,1019.71
2016-09-24T01:10:13.724Z,1019.72
2016-09-24T01:11:13.709Z,1019.72
2016-09-24T01:12:13.691Z,1019.72
2016-09-24T01:13:13.679Z,1019.72
2016-09-24T01:14:13.662Z,1019.75
2016-09-24T01:15:13.646Z,1019.73
2016-09-24T01:16:13.625Z,1019.72
2016-09-24T01:17:13.607Z,1019.75
2016-09-24T01:18:13.590Z,1019.74
2016-09-24T01:19:13.575Z,1019.68
2016-09-24T01:20:13.563Z,1019.71
2016-09-24T01:21:13.540Z,1019.72
2016-09-24T01:22:13.523Z,1019.73
2016-09-24T01:23:13.512Z,1019.75
2016-09-24T01:24:13.492Z,1019.74
2016-09-24T01:25:13.481Z,1019.74
2016-09-24T01:26:13.462Z,1019.75
2016-09-24T01:27:13.441Z,1019.73
2016-09-24T01:28:13.424Z,1019.75
2016-09-24T01:29:13.409Z,1019.72
2016-09-24T01:30:13.392Z,1019.72
2016-09-24T01:31:13.374Z,1019.73
2016-09-24T01:32:13.361Z,1019.71
2016-09-24T01:33:13.345Z,1019.68
2016-09-24T01:34:13.322Z,1019.7
2016-09-24T01:35:13.306Z,1019.7
2016-09-24T01:36:13.297Z,1019.7
2016-09-24T01:37:13.275Z,1019.72
2016-09-24T01:38:13.254Z,1019.7
2016-09-24T01:39:13.241Z,1019.7
2016-09-24T01:40:13.222Z,1019.72
2016-09-24T01:41:13.207Z,1019.74
2016-09-24T01:42:13.189Z,1019.71
2016-09-24T01:43:13.185Z,1019.69
2016-09-24T01:44:13.154Z,1019.77
2016-09-24T01:45:13.142Z,1019.75
2016-09-24T01:46:13.121Z,1019.75
2016-09-24T01:47:13.104Z,1019.79
2016-09-24T01:48:13.090Z,1019.73
2016-09-24T01:49:13.070Z,1019.7
2016-09-24T01:50:13.054Z,1019.74
2016-09-24T01:51:13.036Z,1019.72
2016-09-24T01:52:13.021Z,1019.73
2016-09-24T01:53:13.008Z,1019.71
2016-09-24T01:54:12.986Z,1019.73
2016-09-24T01:55:12.970Z,1019.71
2016-09-24T01:56:12.953Z,1019.7
2016-09-24T01:57:12.936Z,1019.66
2016-09-24T01:58:12.920Z,1019.66
2016-09-24T01:59:12.909Z,1019.67
2016-09-24T02:00:12.886Z,1019.63
2016-09-24T02:01:12.871Z,1019.61
2016-09-24T02:02:12.855Z,1019.61
2016-09-24T02:03:12.835Z,1019.6
2016-09-24T02:04:12.821Z,1019.56
2016-09-24T02:05:12.802Z,1019.57
2016-09-24T02:06:12.785Z,1019.57
2016-09-24T02:07:12.769Z,1019.56
2016-09-24T02:08:12.751Z,1019.57
2016-09-24T02:09:12.735Z,1019.53
2016-09-24T02:10:12.716Z,1019.55
2016-09-24T02:11:12.701Z,1019.56
2016-09-24T02:12:12.686Z,1019.56
2016-09-24T02:13:12.667Z,1019.51
2016-09-24T02:14:12.651Z,1019.53
2016-09-24T02:15:12.636Z,1019.49
2016-09-24T02:16:12.619Z,1019.49
2016-09-24T02:17:12.606Z,1019.5
2016-09-24T02:18:12.583Z,1019.52
2016-09-24T02:19:12.565Z,1019.5
2016-09-24T02:20:12.548Z,1019.47
2016-09-24T02:21:12.540Z,1019.47
2016-09-24T02:22:12.514Z,1019.51
2016-09-24T02:23:12.499Z,1019.46
2016-09-24T02:24:12.492Z,1019.45
2016-09-24T02:25:12.470Z,1019.46
2016-09-24T02:26:12.449Z,1019.46
2016-09-24T02:27:12.429Z,1019.42
2016-09-24T02:28:12.415Z,1019.49
2016-09-24T02:29:12.397Z,1019.46
2016-09-24T02:30:12.381Z,1019.44
2016-09-24T02:31:12.365Z,1019.48
2016-09-24T02:32:12.349Z,1019.48
2016-09-24T02:33:12.328Z,1019.46
2016-09-24T02:34:12.311Z,1019.45
2016-09-24T02:35:12.296Z,1019.41
2016-09-24T02:36:12.277Z,1019.45
2016-09-24T02:37:12.261Z,1019.43
2016-09-24T02:38:12.248Z,1019.43
2016-09-24T02:39:12.229Z,1019.4
2016-09-24T02:40:12.218Z,1019.41
2016-09-24T02:41:12.195Z,1019.39
2016-09-24T02:42:12.177Z,1019.41
2016-09-24T02:43:12.160Z,1019.39
2016-09-24T02:44:12.141Z,1019.35
2016-09-24T02:45:12.123Z,1019.39
2016-09-24T02:46:12.107Z,1019.37
2016-09-24T02:47:12.092Z,1019.36
2016-09-24T02:48:12.082Z,1019.35
2016-09-24T02:49:12.057Z,1019.32
2016-09-24T02:50:12.039Z,1019.31
2016-09-24T02:51:12.024Z,1019.29
2016-09-24T02:52:12.009Z,1019.29
2016-09-24T02:53:11.990Z,1019.27
2016-09-24T02:54:11.972Z,1019.26
2016-09-24T02:55:11.956Z,1019.28
2016-09-24T02:56:11.938Z,1019.24
2016-09-24T02:57:11.920Z,1019.26
2016-09-24T02:58:11.906Z,1019.26
2016-09-24T02:59:11.888Z,1019.26
2016-09-24T03:00:11.870Z,1019.23
2016-09-24T03:01:11.858Z,1019.26
2016-09-24T03:02:11.838Z,1019.28
2016-09-24T03:03:11.822Z,1019.3
2016-09-24T03:04:11.808Z,1019.25
2016-09-24T03:05:11.787Z,1019.29
2016-09-24T03:06:11.768Z,1019.28
2016-09-24T03:07:11.753Z,1019.25
2016-09-24T03:08:11.733Z,1019.26
2016-09-24T03:09:11.717Z,1019.29
2016-09-24T03:10:11.699Z,1019.26
2016-09-24T03:11:11.684Z,1019.27
2016-09-24T03:12:11.666Z,1019.21
2016-09-24T03:13:11.651Z,1019.26
2016-09-24T03:14:11.633Z,1019.24
2016-09-24T03:15:11.619Z,1019.26
2016-09-24T03:16:11.599Z,1019.25
2016-09-24T03:17:11.581Z,1019.23
2016-09-24T03:18:11.564Z,1019.22
2016-09-24T03:19:11.546Z,1019.22
2016-09-24T03:20:11.530Z,1019.2
2016-09-24T03:21:11.512Z,1019.21
2016-09-24T03:22:11.499Z,1019.18
2016-09-24T03:23:11.480Z,1019.18
2016-09-24T03:24:11.463Z,1019.14
2016-09-24T03:25:11.445Z,1019.17
2016-09-24T03:26:11.428Z,1019.22
2016-09-24T03:27:11.413Z,1019.23
2016-09-24T03:28:11.394Z,1019.27
2016-09-24T03:29:11.380Z,1019.26
2016-09-24T03:30:11.363Z,1019.2
2016-09-24T03:31:11.343Z,1019.21
2016-09-24T03:32:11.325Z,1019.15
2016-09-24T03:33:11.310Z,1019.12
2016-09-24T03:34:11.291Z,1019.17
2016-09-24T03:35:11.275Z,1019.16
2016-09-24T03:36:11.258Z,1019.15
2016-09-24T03:37:11.241Z,1019.16
2016-09-24T03:38:11.224Z,1019.11
2016-09-24T03:39:11.208Z,1019.12
2016-09-24T03:40:11.192Z,1019.11
2016-09-24T03:41:11.174Z,1019.09
2016-09-24T03:42:11.157Z,1019.12
2016-09-24T03:43:11.137Z,1019.1
2016-09-24T03:44:11.123Z,1019.14
2016-09-24T03:45:11.105Z,1019.09
2016-09-24T03:46:11.094Z,1019.13
2016-09-24T03:47:11.072Z,1019.08
2016-09-24T03:48:11.057Z,1019.1
2016-09-24T03:49:11.041Z,1019.13
2016-09-24T03:50:11.025Z,1019.1
2016-09-24T03:51:11.006Z,1019.12
2016-09-24T03:52:10.990Z,1019.12
2016-09-24T03:53:10.970Z,1019.09
2016-09-24T03:54:10.954Z,1019.1
2016-09-24T03:55:10.936Z,1019.08
2016-09-24T03:56:10.921Z,1019.08
2016-09-24T03:57:10.903Z,1019.08
2016-09-24T03:58:10.887Z,1019.07
2016-09-24T03:59:10.867Z,1019.08
2016-09-24T04:00:10.851Z,1019.06
2016-09-24T04:01:10.836Z,1019.1
2016-09-24T04:02:10.827Z,1019.06
2016-09-24T04:03:10.800Z,1019.08
2016-09-24T04:04:10.782Z,1019.11
2016-09-24T04:05:10.767Z,1019.12
2016-09-24T04:06:10.752Z,1019.12
2016-09-24T04:07:10.736Z,1019.11
2016-09-24T04:08:10.716Z,1019.13
2016-09-24T04:09:10.697Z,1019.08
2016-09-24T04:10:10.683Z,1019.11
2016-09-24T04:11:10.662Z,1019.13
2016-09-24T04:12:10.645Z,1019.14
2016-09-24T04:13:10.627Z,1019.13
2016-09-24T04:14:10.616Z,1019.13
2016-09-24T04:15:10.595Z,1019.14
2016-09-24T04:16:10.575Z,1019.14
2016-09-24T04:17:10.560Z,1019.12
2016-09-24T04:18:10.544Z,1019.06
2016-09-24T04:19:10.523Z,1019.1
2016-09-24T04:20:10.509Z,1019.03
2016-09-24T04:21:10.493Z,1019.08
2016-09-24T04:22:10.475Z,1019.09
2016-09-24T04:23:10.457Z,1019.04
2016-09-24T04:24:10.439Z,1019.04
2016-09-24T04:25:10.424Z,1019.01
2016-09-24T04:26:10.406Z,1019.09
2016-09-24T04:27:10.387Z,1019.05
2016-09-24T04:28:10.371Z,1019.08
2016-09-24T04:29:10.354Z,1019.08
2016-09-24T04:30:10.336Z,1019.05
2016-09-24T04:31:10.318Z,1019.05
2016-09-24T04:32:10.306Z,1019.04
2016-09-24T04:33:10.285Z,1019.03
2016-09-24T04:34:10.269Z,1019.05
2016-09-24T04:35:10.254Z,1018.97
2016-09-24T04:36:10.235Z,1018.99
2016-09-24T04:37:10.223Z,1018.98
2016-09-24T04:38:10.202Z,1018.98
2016-09-24T04:39:10.183Z,1019.02
2016-09-24T04:40:10.168Z,1018.97
2016-09-24T04:41:10.154Z,1019
2016-09-24T04:42:10.133Z,1019
2016-09-24T04:43:10.117Z,1019.02
2016-09-24T04:44:10.100Z,1019.02
2016-09-24T04:45:10.081Z,1018.99
2016-09-24T04:46:10.066Z,1019
2016-09-24T04:47:10.047Z,1018.97
2016-09-24T04:48:10.031Z,1019.01
2016-09-24T04:49:10.262Z,1018.97
2016-09-24T04:50:09.995Z,1018.98
2016-09-24T04:51:09.981Z,1018.98
2016-09-24T04:52:09.961Z,1018.98
2016-09-24T04:53:09.946Z,1019.03
2016-09-24T04:54:09.928Z,1018.98
2016-09-24T04:55:09.915Z,1018.97
2016-09-24T04:56:09.900Z,1018.94
2016-09-24T04:57:09.874Z,1018.95
2016-09-24T04:58:09.859Z,1018.98
2016-09-24T04:59:09.842Z,1018.99
2016-09-24T05:00:09.825Z,1018.99
2016-09-24T05:01:09.810Z,1018.97
2016-09-24T05:02:09.789Z,1018.99
2016-09-24T05:03:09.770Z,1019.02
2016-09-24T05:04:09.754Z,1019.07
2016-09-24T05:05:09.738Z,1019.03
2016-09-24T05:06:09.719Z,1019.04
2016-09-24T05:07:09.704Z,1019.03
2016-09-24T05:08:09.690Z,1019.05
2016-09-24T05:09:09.674Z,1019.07
2016-09-24T05:10:09.654Z,1019.1
2016-09-24T05:11:09.634Z,1019.03
2016-09-24T05:12:09.620Z,1019.07
2016-09-24T05:13:09.599Z,1019.05
2016-09-24T05:14:09.580Z,1019.05
2016-09-24T05:15:09.565Z,1019.05
2016-09-24T05:16:09.550Z,1019.08
2016-09-24T05:17:09.531Z,1019.07
2016-09-24T05:18:09.515Z,1019.05
2016-09-24T05:19:09.496Z,1019.06
2016-09-24T05:20:09.481Z,1019.06
2016-09-24T05:21:09.462Z,1019.02
2016-09-24T05:22:09.444Z,1019.04
2016-09-24T05:23:09.429Z,1019.05
2016-09-24T05:24:09.414Z,1019.03
2016-09-24T05:25:09.396Z,1019.01
2016-09-24T05:26:09.381Z,1019.03
2016-09-24T05:27:09.361Z,1019.06
2016-09-24T05:28:09.345Z,1019.07
2016-09-24T05:29:09.327Z,1019.04
2016-09-24T05:30:09.310Z,1019.04
2016-09-24T05:31:09.291Z,1019.04
2016-09-24T05:32:09.275Z,1019.04
2016-09-24T05:33:09.257Z,1019.02
2016-09-24T05:34:09.239Z,1019.02
2016-09-24T05:35:09.222Z,1019.04
2016-09-24T05:36:09.206Z,1019.01
2016-09-24T05:37:09.187Z,1019.01
2016-09-24T05:38:09.173Z,1019.02
2016-09-24T05:39:09.154Z,1019.03
2016-09-24T05:40:09.135Z,1019.03
2016-09-24T05:41:09.117Z,1019.01
2016-09-24T05:42:09.102Z,1019.03
2016-09-24T05:43:09.084Z,1019
2016-09-24T05:44:09.067Z,1019
2016-09-24T05:45:09.051Z,1019.01
2016-09-24T05:46:09.033Z,1019.01
2016-09-24T05:47:09.015Z,1019.06
2016-09-24T05:48:08.999Z,1019
2016-09-24T05:49:08.984Z,1019.02
2016-09-24T05:50:08.966Z,1019.04
2016-09-24T05:51:08.946Z,1019.04
2016-09-24T05:52:08.932Z,1019.04
2016-09-24T05:53:08.915Z,1019.04
2016-09-24T05:54:08.895Z,1019.07
2016-09-24T05:55:08.878Z,1019.07
2016-09-24T05:56:08.862Z,1019.04
2016-09-24T05:57:08.844Z,1019.02
2016-09-24T05:58:08.826Z,1019.07
2016-09-24T05:59:08.811Z,1019.04
2016-09-24T06:00:08.795Z,1019.07
2016-09-24T06:01:08.774Z,1019.07
2016-09-24T06:02:08.757Z,1019.1
2016-09-24T06:03:08.743Z,1019.06
2016-09-24T06:04:08.725Z,1019.07
2016-09-24T06:05:08.705Z,1019.04
2016-09-24T06:06:08.693Z,1019.05
2016-09-24T06:07:08.672Z,1019.06
2016-09-24T06:08:08.654Z,1019.06
2016-09-24T06:09:08.639Z,1019.07
2016-09-24T06:10:08.619Z,1019.08
2016-09-24T06:11:08.607Z,1019.08
2016-09-24T06:12:08.584Z,1019.08
2016-09-24T06:13:08.715Z,1019.06
2016-09-24T06:14:08.552Z,1019.12
2016-09-24T06:15:08.532Z,1019.11
2016-09-24T06:16:08.517Z,1019.15
2016-09-24T06:17:08.505Z,1019.1
2016-09-24T06:18:08.482Z,1019.13
2016-09-24T06:19:08.465Z,1019.09
2016-09-24T06:20:08.452Z,1019.11
2016-09-24T06:21:08.430Z,1019.12
2016-09-24T06:22:08.413Z,1019.11
2016-09-24T06:23:08.396Z,1019.12
2016-09-24T06:24:08.378Z,1019.13
2016-09-24T06:25:08.361Z,1019.12
2016-09-24T06:26:08.344Z,1019.1
2016-09-24T06:27:08.329Z,1019.11
2016-09-24T06:28:08.310Z,1019.1
2016-09-24T06:29:08.293Z,1019.06
2016-09-24T06:30:08.276Z,1019.1
2016-09-24T06:31:08.256Z,1019.11
2016-09-24T06:32:08.241Z,1019.12
2016-09-24T06:33:08.225Z,1019.07
2016-09-24T06:34:08.206Z,1019.1
2016-09-24T06:35:08.192Z,1019.08
2016-09-24T06:36:08.174Z,1019.1
2016-09-24T06:37:08.159Z,1019.04
2016-09-24T06:38:08.138Z,1019.05
2016-09-24T06:39:08.126Z,1019.1
2016-09-24T06:40:08.103Z,1019.08
2016-09-24T06:41:08.086Z,1019.03
2016-09-24T06:42:08.070Z,1019.13
2016-09-24T06:43:08.052Z,1019.06
2016-09-24T06:44:08.040Z,1019.06
2016-09-24T06:45:08.018Z,1019.15
2016-09-24T06:46:08.000Z,1019.09
2016-09-24T06:47:07.986Z,1019.1
2016-09-24T06:48:07.967Z,1019.09
2016-09-24T06:49:07.945Z,1019.08
2016-09-24T06:50:07.935Z,1019.04
2016-09-24T06:51:07.915Z,1019.06
2016-09-24T06:52:07.896Z,1019.04
2016-09-24T06:53:07.877Z,1019.02
2016-09-24T06:54:07.862Z,1019.07
2016-09-24T06:55:07.850Z,1019.05
2016-09-24T06:56:07.828Z,1019.04
2016-09-24T06:57:07.811Z,1019.05
2016-09-24T06:58:07.795Z,1019.04
2016-09-24T06:59:07.778Z,1019.05
2016-09-24T07:00:07.761Z,1018.98
2016-09-24T07:01:07.743Z,1019.04
2016-09-24T07:02:07.727Z,1019.03
2016-09-24T07:03:07.710Z,1019.04
2016-09-24T07:04:07.695Z,1019
2016-09-24T07:05:07.680Z,1019.03
2016-09-24T07:06:07.660Z,1019.02
2016-09-24T07:07:07.643Z,1019.02
2016-09-24T07:08:07.623Z,1019.06
2016-09-24T07:09:07.605Z,1019.05
2016-09-24T07:10:07.588Z,1019.03
2016-09-24T07:11:07.570Z,1019.08
2016-09-24T07:12:07.556Z,1019.07
2016-09-24T07:13:07.538Z,1019.06
2016-09-24T07:14:07.519Z,1019.06
2016-09-24T07:15:07.503Z,1019.07
2016-09-24T07:16:07.486Z,1019.08
2016-09-24T07:17:07.471Z,1019.05
2016-09-24T07:18:07.456Z,1019.06
2016-09-24T07:19:07.437Z,1019.07
2016-09-24T07:20:07.420Z,1019.07
2016-09-24T07:21:07.402Z,1019.14
2016-09-24T07:22:07.385Z,1019.1
2016-09-24T07:23:07.374Z,1019.09
2016-09-24T07:24:07.349Z,1019.08
2016-09-24T07:25:07.333Z,1019.07
2016-09-24T07:26:07.314Z,1019.06
2016-09-24T07:27:07.299Z,1019.07
2016-09-24T07:28:07.281Z,1019.07
2016-09-24T07:29:07.265Z,1019.07
2016-09-24T07:30:07.245Z,1019.07
2016-09-24T07:31:07.230Z,1019.08
2016-09-24T07:32:07.210Z,1019.13
2016-09-24T07:33:07.198Z,1019.08
2016-09-24T07:34:07.178Z,1019.07
2016-09-24T07:35:07.161Z,1019.1
2016-09-24T07:36:07.142Z,1019.07
2016-09-24T07:37:07.127Z,1019.11
2016-09-24T07:38:07.108Z,1019.09
2016-09-24T07:39:07.092Z,1019.16
2016-09-24T07:40:07.076Z,1019.14
2016-09-24T07:41:07.054Z,1019.17
2016-09-24T07:42:07.043Z,1019.17
2016-09-24T07:43:07.024Z,1019.15
2016-09-24T07:44:07.008Z,1019.17
2016-09-24T07:45:06.990Z,1019.13
2016-09-24T07:46:06.974Z,1019.15
2016-09-24T07:47:06.956Z,1019.17
2016-09-24T07:48:06.940Z,1019.19
2016-09-24T07:49:06.922Z,1019.22
2016-09-24T07:50:06.905Z,1019.13
2016-09-24T07:51:06.886Z,1019.19
2016-09-24T07:52:06.872Z,1019.21
2016-09-24T07:53:06.854Z,1019.24
2016-09-24T07:54:06.834Z,1019.23
2016-09-24T07:55:06.820Z,1019.22
2016-09-24T07:56:06.800Z,1019.22
2016-09-24T07:57:06.781Z,1019.21
2016-09-24T07:58:06.768Z,1019.22
2016-09-24T07:59:06.748Z,1019.24
2016-09-24T08:00:06.733Z,1019.21
2016-09-24T08:01:06.718Z,1019.24
2016-09-24T08:02:06.699Z,1019.27
2016-09-24T08:03:06.683Z,1019.22
2016-09-24T08:04:06.666Z,1019.21
2016-09-24T08:05:06.647Z,1019.25
2016-09-24T08:06:06.633Z,1019.22
2016-09-24T08:07:06.614Z,1019.24
2016-09-24T08:08:06.598Z,1019.24
2016-09-24T08:09:06.581Z,1019.22
2016-09-24T08:10:06.565Z,1019.24
2016-09-24T08:11:06.547Z,1019.27
2016-09-24T08:12:06.530Z,1019.25
2016-09-24T08:13:06.513Z,1019.2
2016-09-24T08:14:06.495Z,1019.27
2016-09-24T08:15:06.476Z,1019.22
2016-09-24T08:16:06.761Z,1019.22
2016-09-24T08:17:06.444Z,1019.21
2016-09-24T08:18:06.427Z,1019.2
2016-09-24T08:19:06.414Z,1019.21
2016-09-24T08:20:06.390Z,1019.25
2016-09-24T08:21:06.375Z,1019.25
2016-09-24T08:22:06.359Z,1019.23
2016-09-24T08:23:06.343Z,1019.21
2016-09-24T08:24:06.323Z,1019.27
2016-09-24T08:25:06.306Z,1019.23
2016-09-24T08:26:06.291Z,1019.23
2016-09-24T08:27:06.274Z,1019.23
2016-09-24T08:28:06.255Z,1019.25
2016-09-24T08:29:06.243Z,1019.25
2016-09-24T08:30:06.222Z,1019.25
2016-09-24T08:31:06.205Z,1019.31
2016-09-24T08:32:06.187Z,1019.24
2016-09-24T08:33:06.172Z,1019.29
2016-09-24T08:34:06.156Z,1019.24
2016-09-24T08:35:06.138Z,1019.25
2016-09-24T08:36:06.121Z,1019.23
2016-09-24T08:37:06.104Z,1019.25
2016-09-24T08:38:06.090Z,1019.27
2016-09-24T08:39:06.069Z,1019.26
2016-09-24T08:40:06.049Z,1019.22
2016-09-24T08:41:06.037Z,1019.29
2016-09-24T08:42:06.018Z,1019.21
2016-09-24T08:43:06.001Z,1019.21
2016-09-24T08:44:05.985Z,1019.17
2016-09-24T08:45:05.968Z,1019.22
2016-09-24T08:46:05.951Z,1019.23
2016-09-24T08:47:05.931Z,1019.18
2016-09-24T08:48:05.915Z,1019.16
2016-09-24T08:49:05.898Z,1019.19
2016-09-24T08:50:05.886Z,1019.17
2016-09-24T08:51:05.872Z,1019.17
2016-09-24T08:52:05.853Z,1019.17
2016-09-24T08:53:05.830Z,1019.15
2016-09-24T08:54:05.815Z,1019.18
2016-09-24T08:55:05.798Z,1019.17
2016-09-24T08:56:05.785Z,1019.15
2016-09-24T08:57:05.763Z,1019.13
2016-09-24T08:58:05.744Z,1019.19
2016-09-24T08:59:05.728Z,1019.17
2016-09-24T09:00:05.712Z,1019.15
2016-09-24T09:01:05.694Z,1019.1
2016-09-24T09:02:05.680Z,1019.11
2016-09-24T09:03:05.662Z,1019.11
2016-09-24T09:04:05.645Z,1019.09
2016-09-24T09:05:05.627Z,1019.06
2016-09-24T09:06:05.611Z,1019.07
2016-09-24T09:07:05.596Z,1019.08
2016-09-24T09:08:05.577Z,1019.05
2016-09-24T09:09:05.559Z,1019.04
2016-09-24T09:10:05.543Z,1019.07
2016-09-24T09:11:05.535Z,1019.08
2016-09-24T09:12:05.507Z,1019.05
2016-09-24T09:13:05.491Z,1019.03
2016-09-24T09:14:05.474Z,1019.04
2016-09-24T09:15:05.460Z,1019
2016-09-24T09:16:05.439Z,1018.99
2016-09-24T09:17:05.423Z,1019
2016-09-24T09:18:05.405Z,1018.99
2016-09-24T09:19:05.389Z,1018.98
2016-09-24T09:20:05.373Z,1018.99
2016-09-24T09:21:05.354Z,1018.96
2016-09-24T09:22:05.339Z,1018.94
2016-09-24T09:23:05.321Z,1018.99
2016-09-24T09:24:05.306Z,1018.96
2016-09-24T09:25:05.289Z,1018.98
2016-09-24T09:26:05.270Z,1018.99
2016-09-24T09:27:05.255Z,1018.98
2016-09-24T09:28:05.237Z,1018.97
2016-09-24T09:29:05.219Z,1018.96
2016-09-24T09:30:05.205Z,1018.96
2016-09-24T09:31:05.184Z,1018.98
2016-09-24T09:32:05.168Z,1018.98
2016-09-24T09:33:05.150Z,1018.98
2016-09-24T09:34:05.134Z,1019.02
2016-09-24T09:35:05.115Z,1019
2016-09-24T09:36:05.105Z,1018.99
2016-09-24T09:37:05.081Z,1018.99
2016-09-24T09:38:05.067Z,1019.03
2016-09-24T09:39:05.050Z,1019
2016-09-24T09:40:05.031Z,1019.02
2016-09-24T09:41:05.016Z,1018.99
2016-09-24T09:42:04.998Z,1018.98
2016-09-24T09:43:04.983Z,1018.98
2016-09-24T09:44:04.962Z,1018.95
2016-09-24T09:45:04.947Z,1018.96
2016-09-24T09:46:04.930Z,1018.96
2016-09-24T09:47:04.919Z,1018.95
2016-09-24T09:48:04.893Z,1018.98
2016-09-24T09:49:04.877Z,1018.95
2016-09-24T09:50:04.866Z,1018.97
2016-09-24T09:51:04.844Z,1018.96
2016-09-24T09:52:04.830Z,1018.97
2016-09-24T09:53:04.809Z,1019
2016-09-24T09:54:04.792Z,1018.97
2016-09-24T09:55:04.784Z,1018.93
2016-09-24T09:56:04.762Z,1018.97
2016-09-24T09:57:04.749Z,1018.98
2016-09-24T09:58:04.727Z,1018.98
2016-09-24T09:59:04.709Z,1018.95
2016-09-24T10:00:04.691Z,1018.97
2016-09-24T10:01:04.680Z,1018.96
2016-09-24T10:02:04.657Z,1018.9
2016-09-24T10:03:04.641Z,1018.87
2016-09-24T10:04:04.626Z,1018.87
2016-09-24T10:05:04.607Z,1018.84
2016-09-24T10:06:04.590Z,1018.8
2016-09-24T10:07:04.573Z,1018.81
2016-09-24T10:08:04.559Z,1018.77
2016-09-24T10:09:04.541Z,1018.8
2016-09-24T10:10:04.520Z,1018.77
2016-09-24T10:11:04.506Z,1018.75
2016-09-24T10:12:04.490Z,1018.76
2016-09-24T10:13:04.471Z,1018.73
2016-09-24T10:14:04.457Z,1018.71
2016-09-24T10:15:04.440Z,1018.72
2016-09-24T10:16:04.424Z,1018.73
2016-09-24T10:17:04.403Z,1018.72
2016-09-24T10:18:04.393Z,1018.71
2016-09-24T10:19:04.374Z,1018.71
2016-09-24T10:20:04.354Z,1018.68
2016-09-24T10:21:04.338Z,1018.69
2016-09-24T10:22:04.321Z,1018.68
2016-09-24T10:23:04.302Z,1018.71
2016-09-24T10:24:04.285Z,1018.72
2016-09-24T10:25:04.269Z,1018.65
2016-09-24T10:26:04.261Z,1018.63
2016-09-24T10:27:04.237Z,1018.64
2016-09-24T10:28:04.220Z,1018.66
2016-09-24T10:29:04.203Z,1018.61
2016-09-24T10:30:04.184Z,1018.61
2016-09-24T10:31:04.168Z,1018.62
2016-09-24T10:32:04.151Z,1018.63
2016-09-24T10:33:04.136Z,1018.61
2016-09-24T10:34:04.117Z,1018.65
2016-09-24T10:35:04.099Z,1018.61
2016-09-24T10:36:04.084Z,1018.61
2016-09-24T10:37:04.064Z,1018.57
2016-09-24T10:38:04.051Z,1018.6
2016-09-24T10:39:04.030Z,1018.58
2016-09-24T10:40:04.017Z,1018.57
2016-09-24T10:41:04.003Z,1018.57
2016-09-24T10:42:03.983Z,1018.53
2016-09-24T10:43:03.966Z,1018.55
2016-09-24T10:44:03.948Z,1018.51
2016-09-24T10:45:03.933Z,1018.56
2016-09-24T10:46:03.911Z,1018.56
2016-09-24T10:47:03.901Z,1018.57
2016-09-24T10:48:03.884Z,1018.57
2016-09-24T10:49:03.866Z,1018.53
2016-09-24T10:50:03.847Z,1018.53
2016-09-24T10:51:03.833Z,1018.55
2016-09-24T10:52:03.814Z,1018.48
2016-09-24T10:53:03.799Z,1018.47
2016-09-24T10:54:03.781Z,1018.51
2016-09-24T10:55:03.765Z,1018.54
2016-09-24T10:56:03.749Z,1018.54
2016-09-24T10:57:03.730Z,1018.52
2016-09-24T10:58:03.713Z,1018.53
2016-09-24T10:59:03.695Z,1018.51
2016-09-24T11:00:03.677Z,1018.52
2016-09-24T11:01:03.661Z,1018.53
2016-09-24T11:02:03.645Z,1018.51
2016-09-24T11:03:03.633Z,1018.47
2016-09-24T11:04:03.611Z,1018.52
2016-09-24T11:05:03.614Z,1018.46
2016-09-24T11:06:03.583Z,1018.5
2016-09-24T11:07:03.567Z,1018.46
2016-09-24T11:08:03.551Z,1018.43
2016-09-24T11:09:03.529Z,1018.46
2016-09-24T11:10:03.512Z,1018.44
2016-09-24T11:11:03.495Z,1018.41
2016-09-24T11:12:03.479Z,1018.42
2016-09-24T11:13:03.464Z,1018.42
2016-09-24T11:14:03.444Z,1018.4
2016-09-24T11:15:03.426Z,1018.39
2016-09-24T11:16:03.411Z,1018.37
2016-09-24T11:17:03.401Z,1018.44
2016-09-24T11:18:03.378Z,1018.41
2016-09-24T11:19:03.360Z,1018.38
2016-09-24T11:20:03.346Z,1018.4
2016-09-24T11:21:03.333Z,1018.41
2016-09-24T11:22:03.317Z,1018.43
2016-09-24T11:23:03.295Z,1018.36
2016-09-24T11:24:03.283Z,1018.39
2016-09-24T11:25:03.262Z,1018.39
2016-09-24T11:26:03.248Z,1018.34
2016-09-24T11:27:03.229Z,1018.36
2016-09-24T11:28:03.212Z,1018.31
2016-09-24T11:29:03.196Z,1018.28
2016-09-24T11:30:03.179Z,1018.3
2016-09-24T11:31:03.161Z,1018.32
2016-09-24T11:32:03.151Z,1018.31
2016-09-24T11:33:03.130Z,1018.29
2016-09-24T11:34:03.110Z,1018.33
2016-09-24T11:35:03.103Z,1018.26
2016-09-24T11:36:03.079Z,1018.29
2016-09-24T11:37:03.063Z,1018.28
2016-09-24T11:38:03.045Z,1018.27
2016-09-24T11:39:03.029Z,1018.26
2016-09-24T11:40:03.013Z,1018.26
2016-09-24T11:41:02.999Z,1018.29
2016-09-24T11:42:02.984Z,1018.25
2016-09-24T11:43:02.963Z,1018.23
2016-09-24T11:44:02.950Z,1018.28
2016-09-24T11:45:02.929Z,1018.23
2016-09-24T11:46:02.913Z,1018.18
2016-09-24T11:47:02.897Z,1018.18
2016-09-24T11:48:02.881Z,1018.17
2016-09-24T11:49:02.866Z,1018.17
2016-09-24T11:50:02.849Z,1018.19
2016-09-24T11:51:02.835Z,1018.23
2016-09-24T11:52:02.817Z,1018.17
2016-09-24T11:53:02.804Z,1018.19
2016-09-24T11:54:02.785Z,1018.21
2016-09-24T11:55:02.768Z,1018.2
2016-09-24T11:56:02.750Z,1018.18
2016-09-24T11:57:02.735Z,1018.1
2016-09-24T11:58:02.725Z,1018.13
2016-09-24T11:59:02.701Z,1018.08
2016-09-24T12:00:02.686Z,1018.08
2016-09-24T12:01:02.669Z,1018.12
2016-09-24T12:02:02.655Z,1018.05
2016-09-24T12:03:02.634Z,1018.01
2016-09-24T12:04:02.620Z,1017.97
2016-09-24T12:05:02.602Z,1017.96
2016-09-24T12:06:02.586Z,1017.97
2016-09-24T12:07:02.574Z,1017.96
2016-09-24T12:08:02.559Z,1017.96